sensor_id;sensor_type;location;lat;lon;timestamp;temperature;humidity
4308;DHT22;2167;53.448;9.984;2022-08-03T00:01:16;21.70;38.20
4308;DHT22;2167;53.448;9.984;2022-08-03T00:03:42;21.60;38.40
4308;DHT22;2167;53.448;9.984;2022-08-03T00:06:08;21.60;38.30
4308;DHT22;2167;53.448;9.984;2022-08-03T00:08:34;21.60;38.50
4308;DHT22;2167;53.448;9.984;2022-08-03T00:11:00;21.60;38.60
4308;DHT22;2167;53.448;9.984;2022-08-03T00:13:25;21.60;38.20
4308;DHT22;2167;53.448;9.984;2022-08-03T00:15:51;21.50;38.40
4308;DHT22;2167;53.448;9.984;2022-08-03T00:18:17;21.60;38.40
4308;DHT22;2167;53.448;9.984;2022-08-03T00:20:43;21.50;38.20
4308;DHT22;2167;53.448;9.984;2022-08-03T00:23:09;21.50;38.20
4308;DHT22;2167;53.448;9.984;2022-08-03T00:25:35;21.50;38.10
4308;DHT22;2167;53.448;9.984;2022-08-03T00:28:02;21.40;38.20
4308;DHT22;2167;53.448;9.984;2022-08-03T00:30:28;21.30;38.80
4308;DHT22;2167;53.448;9.984;2022-08-03T00:32:54;21.30;39.40
4308;DHT22;2167;53.448;9.984;2022-08-03T00:35:19;21.20;39.60
4308;DHT22;2167;53.448;9.984;2022-08-03T00:37:45;21.10;40.00
4308;DHT22;2167;53.448;9.984;2022-08-03T00:40:12;21.10;40.90
4308;DHT22;2167;53.448;9.984;2022-08-03T00:42:46;21.20;41.20
4308;DHT22;2167;53.448;9.984;2022-08-03T00:45:13;21.10;41.30
4308;DHT22;2167;53.448;9.984;2022-08-03T00:47:38;21.10;41.40
4308;DHT22;2167;53.448;9.984;2022-08-03T00:50:05;21.00;41.50
4308;DHT22;2167;53.448;9.984;2022-08-03T00:52:30;20.90;42.80
4308;DHT22;2167;53.448;9.984;2022-08-03T00:54:56;20.90;42.90
4308;DHT22;2167;53.448;9.984;2022-08-03T00:57:21;20.80;43.10
4308;DHT22;2167;53.448;9.984;2022-08-03T00:59:47;20.80;42.70
4308;DHT22;2167;53.448;9.984;2022-08-03T01:02:13;20.70;42.20
4308;DHT22;2167;53.448;9.984;2022-08-03T01:04:38;20.70;41.80
4308;DHT22;2167;53.448;9.984;2022-08-03T01:07:16;20.80;41.20
4308;DHT22;2167;53.448;9.984;2022-08-03T01:10:29;20.70;40.50
4308;DHT22;2167;53.448;9.984;2022-08-03T01:13:34;20.60;40.30
4308;DHT22;2167;53.448;9.984;2022-08-03T01:18:51;20.40;40.70
4308;DHT22;2167;53.448;9.984;2022-08-03T01:21:28;20.30;41.40
4308;DHT22;2167;53.448;9.984;2022-08-03T01:24:03;20.30;42.10
4308;DHT22;2167;53.448;9.984;2022-08-03T01:32:25;20.10;43.40
4308;DHT22;2167;53.448;9.984;2022-08-03T01:34:54;20.00;43.30
4308;DHT22;2167;53.448;9.984;2022-08-03T01:37:26;20.00;43.60
4308;DHT22;2167;53.448;9.984;2022-08-03T01:39:57;20.00;43.60
4308;DHT22;2167;53.448;9.984;2022-08-03T01:42:28;19.90;44.00
4308;DHT22;2167;53.448;9.984;2022-08-03T01:44:56;19.90;44.60
4308;DHT22;2167;53.448;9.984;2022-08-03T01:47:24;19.80;44.70
4308;DHT22;2167;53.448;9.984;2022-08-03T01:49:52;19.70;45.20
4308;DHT22;2167;53.448;9.984;2022-08-03T01:52:20;19.70;45.70
4308;DHT22;2167;53.448;9.984;2022-08-03T01:54:48;19.80;45.80
4308;DHT22;2167;53.448;9.984;2022-08-03T01:57:16;19.70;45.60
4308;DHT22;2167;53.448;9.984;2022-08-03T01:59:43;19.70;46.50
4308;DHT22;2167;53.448;9.984;2022-08-03T02:02:13;19.60;46.40
4308;DHT22;2167;53.448;9.984;2022-08-03T02:04:41;19.60;47.10
4308;DHT22;2167;53.448;9.984;2022-08-03T02:07:08;19.60;47.10
4308;DHT22;2167;53.448;9.984;2022-08-03T02:09:38;19.60;47.00
4308;DHT22;2167;53.448;9.984;2022-08-03T02:12:08;19.50;47.90
4308;DHT22;2167;53.448;9.984;2022-08-03T02:14:34;19.40;48.20
4308;DHT22;2167;53.448;9.984;2022-08-03T02:17:01;19.40;48.30
4308;DHT22;2167;53.448;9.984;2022-08-03T02:19:27;19.40;48.50
4308;DHT22;2167;53.448;9.984;2022-08-03T02:21:55;19.40;48.40
4308;DHT22;2167;53.448;9.984;2022-08-03T02:24:22;19.50;47.60
4308;DHT22;2167;53.448;9.984;2022-08-03T02:26:49;19.50;46.70
4308;DHT22;2167;53.448;9.984;2022-08-03T02:29:20;19.50;45.70
4308;DHT22;2167;53.448;9.984;2022-08-03T02:31:48;19.50;44.90
4308;DHT22;2167;53.448;9.984;2022-08-03T02:34:16;19.50;44.60
4308;DHT22;2167;53.448;9.984;2022-08-03T02:36:45;19.50;43.90
4308;DHT22;2167;53.448;9.984;2022-08-03T02:39:18;19.50;44.10
4308;DHT22;2167;53.448;9.984;2022-08-03T02:41:47;19.50;42.80
4308;DHT22;2167;53.448;9.984;2022-08-03T02:44:17;19.50;42.60
4308;DHT22;2167;53.448;9.984;2022-08-03T02:46:45;19.40;43.70
4308;DHT22;2167;53.448;9.984;2022-08-03T02:49:13;19.30;44.20
4308;DHT22;2167;53.448;9.984;2022-08-03T02:51:41;19.30;44.20
4308;DHT22;2167;53.448;9.984;2022-08-03T02:54:08;19.40;43.60
4308;DHT22;2167;53.448;9.984;2022-08-03T02:56:35;19.30;43.20
4308;DHT22;2167;53.448;9.984;2022-08-03T02:59:02;19.30;42.80
4308;DHT22;2167;53.448;9.984;2022-08-03T03:01:30;19.30;42.60
4308;DHT22;2167;53.448;9.984;2022-08-03T03:03:56;19.30;42.60
4308;DHT22;2167;53.448;9.984;2022-08-03T03:06:24;19.30;42.50
4308;DHT22;2167;53.448;9.984;2022-08-03T03:08:51;19.20;42.40
4308;DHT22;2167;53.448;9.984;2022-08-03T03:11:19;19.30;42.80
4308;DHT22;2167;53.448;9.984;2022-08-03T03:13:47;19.20;43.20
4308;DHT22;2167;53.448;9.984;2022-08-03T03:16:13;19.20;43.40
4308;DHT22;2167;53.448;9.984;2022-08-03T03:18:43;19.10;43.30
4308;DHT22;2167;53.448;9.984;2022-08-03T03:21:09;19.10;43.10
4308;DHT22;2167;53.448;9.984;2022-08-03T03:23:37;19.10;43.40
4308;DHT22;2167;53.448;9.984;2022-08-03T03:26:03;19.10;43.60
4308;DHT22;2167;53.448;9.984;2022-08-03T03:28:30;19.10;42.90
4308;DHT22;2167;53.448;9.984;2022-08-03T03:30:56;19.10;42.10
4308;DHT22;2167;53.448;9.984;2022-08-03T03:33:22;19.10;42.10
4308;DHT22;2167;53.448;9.984;2022-08-03T03:35:49;19.10;42.30
4308;DHT22;2167;53.448;9.984;2022-08-03T03:38:16;19.10;42.10
4308;DHT22;2167;53.448;9.984;2022-08-03T03:40:42;19.10;41.80
4308;DHT22;2167;53.448;9.984;2022-08-03T03:43:09;19.10;42.10
4308;DHT22;2167;53.448;9.984;2022-08-03T03:45:36;19.10;42.30
4308;DHT22;2167;53.448;9.984;2022-08-03T03:48:03;19.10;41.70
4308;DHT22;2167;53.448;9.984;2022-08-03T03:50:31;19.10;41.70
4308;DHT22;2167;53.448;9.984;2022-08-03T03:52:57;19.10;41.90
4308;DHT22;2167;53.448;9.984;2022-08-03T03:55:23;19.10;42.40
4308;DHT22;2167;53.448;9.984;2022-08-03T03:57:49;19.10;42.40
4308;DHT22;2167;53.448;9.984;2022-08-03T04:00:16;19.10;41.80
4308;DHT22;2167;53.448;9.984;2022-08-03T04:02:43;19.10;41.70
4308;DHT22;2167;53.448;9.984;2022-08-03T04:05:09;19.10;41.90
4308;DHT22;2167;53.448;9.984;2022-08-03T04:08:19;19.10;42.10
4308;DHT22;2167;53.448;9.984;2022-08-03T04:11:17;19.10;42.20
4308;DHT22;2167;53.448;9.984;2022-08-03T04:14:04;19.10;43.50
4308;DHT22;2167;53.448;9.984;2022-08-03T04:16:34;19.10;42.30
4308;DHT22;2167;53.448;9.984;2022-08-03T04:21:48;19.30;40.70
4308;DHT22;2167;53.448;9.984;2022-08-03T04:24:15;19.30;40.40
4308;DHT22;2167;53.448;9.984;2022-08-03T04:26:44;19.30;40.40
4308;DHT22;2167;53.448;9.984;2022-08-03T04:29:13;19.40;40.40
4308;DHT22;2167;53.448;9.984;2022-08-03T04:31:41;19.40;40.30
4308;DHT22;2167;53.448;9.984;2022-08-03T04:34:07;19.50;39.70
4308;DHT22;2167;53.448;9.984;2022-08-03T04:36:37;19.50;39.40
4308;DHT22;2167;53.448;9.984;2022-08-03T04:39:15;19.50;39.30
4308;DHT22;2167;53.448;9.984;2022-08-03T04:41:42;19.50;39.20
4308;DHT22;2167;53.448;9.984;2022-08-03T04:44:10;19.50;39.50
4308;DHT22;2167;53.448;9.984;2022-08-03T04:46:37;19.50;39.10
4308;DHT22;2167;53.448;9.984;2022-08-03T04:49:05;19.60;39.20
4308;DHT22;2167;53.448;9.984;2022-08-03T04:51:32;19.60;39.00
4308;DHT22;2167;53.448;9.984;2022-08-03T04:54:03;19.60;38.80
4308;DHT22;2167;53.448;9.984;2022-08-03T04:56:28;19.70;38.90
4308;DHT22;2167;53.448;9.984;2022-08-03T04:58:54;19.70;38.70
4308;DHT22;2167;53.448;9.984;2022-08-03T05:01:19;19.70;38.50
4308;DHT22;2167;53.448;9.984;2022-08-03T05:03:46;19.70;38.30
4308;DHT22;2167;53.448;9.984;2022-08-03T05:06:12;19.70;38.40
4308;DHT22;2167;53.448;9.984;2022-08-03T05:08:38;19.80;38.50
4308;DHT22;2167;53.448;9.984;2022-08-03T05:11:04;19.80;38.00
4308;DHT22;2167;53.448;9.984;2022-08-03T05:13:30;19.90;38.60
4308;DHT22;2167;53.448;9.984;2022-08-03T05:15:55;19.80;38.50
4308;DHT22;2167;53.448;9.984;2022-08-03T05:18:21;19.80;39.50
4308;DHT22;2167;53.448;9.984;2022-08-03T05:20:47;19.90;39.70
4308;DHT22;2167;53.448;9.984;2022-08-03T05:23:12;20.00;39.80
4308;DHT22;2167;53.448;9.984;2022-08-03T05:25:38;20.00;39.50
4308;DHT22;2167;53.448;9.984;2022-08-03T05:28:04;20.00;39.60
4308;DHT22;2167;53.448;9.984;2022-08-03T05:30:30;20.10;39.10
4308;DHT22;2167;53.448;9.984;2022-08-03T05:32:55;20.30;38.40
4308;DHT22;2167;53.448;9.984;2022-08-03T05:35:21;20.40;38.00
4308;DHT22;2167;53.448;9.984;2022-08-03T05:37:49;20.60;36.50
4308;DHT22;2167;53.448;9.984;2022-08-03T05:40:15;20.60;36.10
4308;DHT22;2167;53.448;9.984;2022-08-03T05:42:40;20.70;35.10
4308;DHT22;2167;53.448;9.984;2022-08-03T05:45:06;20.70;34.70
4308;DHT22;2167;53.448;9.984;2022-08-03T05:47:44;20.80;34.30
4308;DHT22;2167;53.448;9.984;2022-08-03T05:50:14;21.00;35.40
4308;DHT22;2167;53.448;9.984;2022-08-03T05:52:40;21.10;34.70
4308;DHT22;2167;53.448;9.984;2022-08-03T05:55:06;21.20;34.10
4308;DHT22;2167;53.448;9.984;2022-08-03T05:57:32;21.40;32.60
4308;DHT22;2167;53.448;9.984;2022-08-03T05:59:58;21.40;31.40
4308;DHT22;2167;53.448;9.984;2022-08-03T06:02:25;21.40;32.00
4308;DHT22;2167;53.448;9.984;2022-08-03T06:04:50;21.50;32.60
4308;DHT22;2167;53.448;9.984;2022-08-03T06:07:16;21.60;31.20
4308;DHT22;2167;53.448;9.984;2022-08-03T06:09:42;21.70;30.90
4308;DHT22;2167;53.448;9.984;2022-08-03T06:12:07;21.80;31.00
4308;DHT22;2167;53.448;9.984;2022-08-03T06:14:33;21.90;30.00
4308;DHT22;2167;53.448;9.984;2022-08-03T06:16:59;22.00;28.40
4308;DHT22;2167;53.448;9.984;2022-08-03T06:19:24;22.10;27.10
4308;DHT22;2167;53.448;9.984;2022-08-03T06:21:51;22.10;26.40
4308;DHT22;2167;53.448;9.984;2022-08-03T06:24:18;22.20;25.20
4308;DHT22;2167;53.448;9.984;2022-08-03T06:26:44;22.30;25.60
4308;DHT22;2167;53.448;9.984;2022-08-03T06:29:09;22.40;23.70
4308;DHT22;2167;53.448;9.984;2022-08-03T06:31:35;22.50;24.20
4308;DHT22;2167;53.448;9.984;2022-08-03T06:34:03;22.70;23.50
4308;DHT22;2167;53.448;9.984;2022-08-03T06:36:29;22.80;23.40
4308;DHT22;2167;53.448;9.984;2022-08-03T06:38:56;22.80;20.70
4308;DHT22;2167;53.448;9.984;2022-08-03T06:41:23;22.90;18.90
4308;DHT22;2167;53.448;9.984;2022-08-03T06:43:49;22.90;18.30
4308;DHT22;2167;53.448;9.984;2022-08-03T06:46:14;23.00;18.00
4308;DHT22;2167;53.448;9.984;2022-08-03T06:48:41;23.10;17.00
4308;DHT22;2167;53.448;9.984;2022-08-03T06:51:06;23.10;18.90
4308;DHT22;2167;53.448;9.984;2022-08-03T06:53:32;23.30;17.80
4308;DHT22;2167;53.448;9.984;2022-08-03T06:55:57;23.30;15.60
4308;DHT22;2167;53.448;9.984;2022-08-03T06:58:23;23.40;14.60
4308;DHT22;2167;53.448;9.984;2022-08-03T07:00:49;23.50;14.60
4308;DHT22;2167;53.448;9.984;2022-08-03T07:03:15;23.60;14.80
4308;DHT22;2167;53.448;9.984;2022-08-03T07:05:41;23.70;13.50
4308;DHT22;2167;53.448;9.984;2022-08-03T07:08:08;23.80;12.70
4308;DHT22;2167;53.448;9.984;2022-08-03T07:10:33;24.00;12.90
4308;DHT22;2167;53.448;9.984;2022-08-03T07:12:59;24.00;11.90
4308;DHT22;2167;53.448;9.984;2022-08-03T07:15:25;24.10;10.70
4308;DHT22;2167;53.448;9.984;2022-08-03T07:17:50;24.20;12.40
4308;DHT22;2167;53.448;9.984;2022-08-03T07:20:16;24.30;11.40
4308;DHT22;2167;53.448;9.984;2022-08-03T07:22:45;24.40;9.90
4308;DHT22;2167;53.448;9.984;2022-08-03T07:25:11;24.50;9.60
4308;DHT22;2167;53.448;9.984;2022-08-03T07:27:37;24.70;8.50
4308;DHT22;2167;53.448;9.984;2022-08-03T07:30:05;24.70;6.60
4308;DHT22;2167;53.448;9.984;2022-08-03T07:32:32;24.80;5.50
4308;DHT22;2167;53.448;9.984;2022-08-03T07:34:58;24.90;8.10
4308;DHT22;2167;53.448;9.984;2022-08-03T07:37:23;25.00;6.80
4308;DHT22;2167;53.448;9.984;2022-08-03T07:39:49;25.20;4.50
4308;DHT22;2167;53.448;9.984;2022-08-03T07:42:15;25.40;4.50
4308;DHT22;2167;53.448;9.984;2022-08-03T07:44:40;25.50;1.70
4308;DHT22;2167;53.448;9.984;2022-08-03T07:47:06;25.60;2.60
4308;DHT22;2167;53.448;9.984;2022-08-03T07:49:32;25.60;4.80
4308;DHT22;2167;53.448;9.984;2022-08-03T07:51:57;25.70;1.30
4308;DHT22;2167;53.448;9.984;2022-08-03T07:54:41;25.80;2.80
4308;DHT22;2167;53.448;9.984;2022-08-03T07:57:07;25.90;1.00
4308;DHT22;2167;53.448;9.984;2022-08-03T07:59:32;26.10;1.00
4308;DHT22;2167;53.448;9.984;2022-08-03T08:01:59;26.30;1.00
4308;DHT22;2167;53.448;9.984;2022-08-03T08:04:25;26.40;1.00
4308;DHT22;2167;53.448;9.984;2022-08-03T08:06:51;26.50;1.00
4308;DHT22;2167;53.448;9.984;2022-08-03T08:09:16;26.50;1.00
4308;DHT22;2167;53.448;9.984;2022-08-03T08:11:42;26.60;1.00
4308;DHT22;2167;53.448;9.984;2022-08-03T08:14:08;26.60;1.00
4308;DHT22;2167;53.448;9.984;2022-08-03T08:16:34;26.60;1.00
4308;DHT22;2167;53.448;9.984;2022-08-03T08:18:59;26.70;1.00
4308;DHT22;2167;53.448;9.984;2022-08-03T08:21:26;26.70;1.00
4308;DHT22;2167;53.448;9.984;2022-08-03T08:23:52;26.80;1.00
4308;DHT22;2167;53.448;9.984;2022-08-03T08:26:17;27.00;1.00
4308;DHT22;2167;53.448;9.984;2022-08-03T08:28:43;27.30;1.00
4308;DHT22;2167;53.448;9.984;2022-08-03T08:31:09;27.50;1.00
4308;DHT22;2167;53.448;9.984;2022-08-03T08:33:35;27.70;1.00
4308;DHT22;2167;53.448;9.984;2022-08-03T08:36:00;27.90;1.00
4308;DHT22;2167;53.448;9.984;2022-08-03T08:38:26;28.10;1.00
4308;DHT22;2167;53.448;9.984;2022-08-03T08:40:54;28.20;1.00
4308;DHT22;2167;53.448;9.984;2022-08-03T08:43:20;28.20;1.00
4308;DHT22;2167;53.448;9.984;2022-08-03T08:45:48;28.30;1.00
4308;DHT22;2167;53.448;9.984;2022-08-03T08:48:14;28.30;1.00
4308;DHT22;2167;53.448;9.984;2022-08-03T08:50:42;28.30;1.00
4308;DHT22;2167;53.448;9.984;2022-08-03T08:53:10;28.40;1.00
4308;DHT22;2167;53.448;9.984;2022-08-03T08:55:37;28.50;1.00
4308;DHT22;2167;53.448;9.984;2022-08-03T08:58:05;28.60;1.00
4308;DHT22;2167;53.448;9.984;2022-08-03T09:00:31;28.70;1.00
4308;DHT22;2167;53.448;9.984;2022-08-03T09:02:57;28.70;1.00
4308;DHT22;2167;53.448;9.984;2022-08-03T09:05:22;28.80;1.00
4308;DHT22;2167;53.448;9.984;2022-08-03T09:07:48;28.90;1.00
4308;DHT22;2167;53.448;9.984;2022-08-03T09:10:16;29.10;1.00
4308;DHT22;2167;53.448;9.984;2022-08-03T09:12:48;29.20;1.00
4308;DHT22;2167;53.448;9.984;2022-08-03T09:15:31;29.40;1.00
4308;DHT22;2167;53.448;9.984;2022-08-03T09:17:59;29.60;1.00
4308;DHT22;2167;53.448;9.984;2022-08-03T09:20:28;29.70;1.00
4308;DHT22;2167;53.448;9.984;2022-08-03T09:22:59;29.80;1.00
4308;DHT22;2167;53.448;9.984;2022-08-03T09:25:47;29.90;1.00
4308;DHT22;2167;53.448;9.984;2022-08-03T09:28:14;30.00;1.00
4308;DHT22;2167;53.448;9.984;2022-08-03T09:30:57;29.90;1.00
4308;DHT22;2167;53.448;9.984;2022-08-03T09:33:23;29.70;1.00
4308;DHT22;2167;53.448;9.984;2022-08-03T09:35:49;29.70;1.00
4308;DHT22;2167;53.448;9.984;2022-08-03T09:38:15;29.70;1.00
4308;DHT22;2167;53.448;9.984;2022-08-03T09:40:42;29.60;1.00
4308;DHT22;2167;53.448;9.984;2022-08-03T09:43:08;29.80;1.00
4308;DHT22;2167;53.448;9.984;2022-08-03T09:45:36;30.10;1.00
4308;DHT22;2167;53.448;9.984;2022-08-03T09:48:21;30.30;1.00
4308;DHT22;2167;53.448;9.984;2022-08-03T09:50:48;30.40;1.00
4308;DHT22;2167;53.448;9.984;2022-08-03T09:53:15;30.20;1.00
4308;DHT22;2167;53.448;9.984;2022-08-03T09:55:50;30.00;1.00
4308;DHT22;2167;53.448;9.984;2022-08-03T09:58:15;29.90;1.00
4308;DHT22;2167;53.448;9.984;2022-08-03T10:00:56;30.00;1.00
4308;DHT22;2167;53.448;9.984;2022-08-03T10:03:23;30.10;1.00
4308;DHT22;2167;53.448;9.984;2022-08-03T10:05:49;30.10;1.00
4308;DHT22;2167;53.448;9.984;2022-08-03T10:08:16;30.00;1.00
4308;DHT22;2167;53.448;9.984;2022-08-03T10:10:43;30.00;1.00
4308;DHT22;2167;53.448;9.984;2022-08-03T10:13:17;30.00;1.00
4308;DHT22;2167;53.448;9.984;2022-08-03T10:15:43;29.90;1.00
4308;DHT22;2167;53.448;9.984;2022-08-03T10:18:09;30.00;1.00
4308;DHT22;2167;53.448;9.984;2022-08-03T10:20:58;30.10;1.00
4308;DHT22;2167;53.448;9.984;2022-08-03T10:23:26;30.20;1.00
4308;DHT22;2167;53.448;9.984;2022-08-03T10:25:57;30.30;1.00
4308;DHT22;2167;53.448;9.984;2022-08-03T10:28:33;30.30;1.00
4308;DHT22;2167;53.448;9.984;2022-08-03T10:31:00;30.40;1.00
4308;DHT22;2167;53.448;9.984;2022-08-03T10:33:27;30.40;1.00
4308;DHT22;2167;53.448;9.984;2022-08-03T10:35:56;30.40;1.00
4308;DHT22;2167;53.448;9.984;2022-08-03T10:38:28;30.50;1.00
4308;DHT22;2167;53.448;9.984;2022-08-03T10:40:58;30.50;1.00
4308;DHT22;2167;53.448;9.984;2022-08-03T10:43:27;30.50;1.00
4308;DHT22;2167;53.448;9.984;2022-08-03T10:45:59;30.60;1.00
4308;DHT22;2167;53.448;9.984;2022-08-03T10:48:25;30.70;1.00
4308;DHT22;2167;53.448;9.984;2022-08-03T10:50:51;30.90;1.00
4308;DHT22;2167;53.448;9.984;2022-08-03T10:53:35;31.00;1.00
4308;DHT22;2167;53.448;9.984;2022-08-03T10:56:01;31.30;1.00
4308;DHT22;2167;53.448;9.984;2022-08-03T10:58:50;31.60;1.00
4308;DHT22;2167;53.448;9.984;2022-08-03T11:01:17;31.90;1.00
4308;DHT22;2167;53.448;9.984;2022-08-03T11:06:25;31.80;1.00
4308;DHT22;2167;53.448;9.984;2022-08-03T11:11:36;32.20;1.00
4308;DHT22;2167;53.448;9.984;2022-08-03T11:14:08;32.30;1.00
4308;DHT22;2167;53.448;9.984;2022-08-03T11:16:39;32.30;1.00
4308;DHT22;2167;53.448;9.984;2022-08-03T11:19:11;32.30;1.00
4308;DHT22;2167;53.448;9.984;2022-08-03T11:40:48;33.30;1.00
4308;DHT22;2167;53.448;9.984;2022-08-03T11:45:59;33.10;1.00
4308;DHT22;2167;53.448;9.984;2022-08-03T11:48:40;33.00;1.00
4308;DHT22;2167;53.448;9.984;2022-08-03T11:51:24;33.00;1.00
4308;DHT22;2167;53.448;9.984;2022-08-03T11:53:58;33.00;1.00
4308;DHT22;2167;53.448;9.984;2022-08-03T11:56:25;33.20;1.00
4308;DHT22;2167;53.448;9.984;2022-08-03T11:58:53;33.20;1.00
4308;DHT22;2167;53.448;9.984;2022-08-03T12:01:21;33.20;1.00
4308;DHT22;2167;53.448;9.984;2022-08-03T12:03:48;33.10;1.00
4308;DHT22;2167;53.448;9.984;2022-08-03T12:06:15;33.40;1.00
4308;DHT22;2167;53.448;9.984;2022-08-03T12:08:42;33.60;1.00
4308;DHT22;2167;53.448;9.984;2022-08-03T12:11:10;33.80;1.00
4308;DHT22;2167;53.448;9.984;2022-08-03T12:13:40;33.90;1.00
4308;DHT22;2167;53.448;9.984;2022-08-03T12:16:06;34.00;1.00
4308;DHT22;2167;53.448;9.984;2022-08-03T12:18:32;34.00;1.00
4308;DHT22;2167;53.448;9.984;2022-08-03T12:21:10;34.00;1.00
4308;DHT22;2167;53.448;9.984;2022-08-03T12:23:37;34.20;1.00
4308;DHT22;2167;53.448;9.984;2022-08-03T12:26:05;34.20;1.00
4308;DHT22;2167;53.448;9.984;2022-08-03T12:28:31;34.30;1.00
4308;DHT22;2167;53.448;9.984;2022-08-03T12:31:04;34.20;1.00
4308;DHT22;2167;53.448;9.984;2022-08-03T12:33:31;34.00;1.00
4308;DHT22;2167;53.448;9.984;2022-08-03T12:36:06;34.20;1.00
4308;DHT22;2167;53.448;9.984;2022-08-03T12:38:37;34.40;1.00
4308;DHT22;2167;53.448;9.984;2022-08-03T12:41:08;34.60;1.00
4308;DHT22;2167;53.448;9.984;2022-08-03T12:43:49;34.50;1.00
4308;DHT22;2167;53.448;9.984;2022-08-03T12:46:17;34.60;1.00
4308;DHT22;2167;53.448;9.984;2022-08-03T12:51:42;34.80;1.00
4308;DHT22;2167;53.448;9.984;2022-08-03T12:54:23;34.70;1.00
4308;DHT22;2167;53.448;9.984;2022-08-03T12:57:11;34.60;1.00
4308;DHT22;2167;53.448;9.984;2022-08-03T12:59:41;34.40;1.00
4308;DHT22;2167;53.448;9.984;2022-08-03T13:02:24;34.30;1.00
4308;DHT22;2167;53.448;9.984;2022-08-03T13:04:52;34.10;1.00
4308;DHT22;2167;53.448;9.984;2022-08-03T13:07:19;33.90;1.00
4308;DHT22;2167;53.448;9.984;2022-08-03T13:09:47;33.80;1.00
4308;DHT22;2167;53.448;9.984;2022-08-03T13:12:15;33.80;1.00
4308;DHT22;2167;53.448;9.984;2022-08-03T13:14:43;33.70;1.00
4308;DHT22;2167;53.448;9.984;2022-08-03T13:17:10;33.80;1.00
4308;DHT22;2167;53.448;9.984;2022-08-03T13:19:36;34.10;1.00
4308;DHT22;2167;53.448;9.984;2022-08-03T13:22:17;34.30;1.00
4308;DHT22;2167;53.448;9.984;2022-08-03T13:24:44;34.20;1.00
4308;DHT22;2167;53.448;9.984;2022-08-03T13:27:10;34.30;1.00
4308;DHT22;2167;53.448;9.984;2022-08-03T13:29:36;34.20;1.00
4308;DHT22;2167;53.448;9.984;2022-08-03T13:32:03;34.10;1.00
4308;DHT22;2167;53.448;9.984;2022-08-03T13:34:29;34.20;1.00
4308;DHT22;2167;53.448;9.984;2022-08-03T13:36:54;34.40;1.00
4308;DHT22;2167;53.448;9.984;2022-08-03T13:39:20;34.60;1.00
4308;DHT22;2167;53.448;9.984;2022-08-03T13:41:45;34.80;1.00
4308;DHT22;2167;53.448;9.984;2022-08-03T13:44:12;35.10;1.00
4308;DHT22;2167;53.448;9.984;2022-08-03T13:46:37;35.10;1.00
4308;DHT22;2167;53.448;9.984;2022-08-03T13:49:04;35.20;1.00
4308;DHT22;2167;53.448;9.984;2022-08-03T13:51:30;35.10;1.00
4308;DHT22;2167;53.448;9.984;2022-08-03T13:53:56;34.90;1.00
4308;DHT22;2167;53.448;9.984;2022-08-03T13:56:27;34.80;1.00
4308;DHT22;2167;53.448;9.984;2022-08-03T13:58:53;35.00;1.00
4308;DHT22;2167;53.448;9.984;2022-08-03T14:01:19;35.10;1.00
4308;DHT22;2167;53.448;9.984;2022-08-03T14:03:45;35.00;1.00
4308;DHT22;2167;53.448;9.984;2022-08-03T14:06:13;34.70;1.00
4308;DHT22;2167;53.448;9.984;2022-08-03T14:08:39;34.30;1.00
4308;DHT22;2167;53.448;9.984;2022-08-03T14:11:04;34.00;1.00
4308;DHT22;2167;53.448;9.984;2022-08-03T14:13:30;34.10;1.00
4308;DHT22;2167;53.448;9.984;2022-08-03T14:15:56;34.10;1.00
4308;DHT22;2167;53.448;9.984;2022-08-03T14:18:21;34.10;1.00
4308;DHT22;2167;53.448;9.984;2022-08-03T14:20:47;34.10;1.00
4308;DHT22;2167;53.448;9.984;2022-08-03T14:23:13;34.20;1.00
4308;DHT22;2167;53.448;9.984;2022-08-03T14:25:39;34.40;1.00
4308;DHT22;2167;53.448;9.984;2022-08-03T14:28:08;34.50;1.00
4308;DHT22;2167;53.448;9.984;2022-08-03T14:30:36;34.70;1.00
4308;DHT22;2167;53.448;9.984;2022-08-03T14:33:03;34.70;1.00
4308;DHT22;2167;53.448;9.984;2022-08-03T14:35:29;35.00;1.00
4308;DHT22;2167;53.448;9.984;2022-08-03T14:37:54;35.30;1.00
4308;DHT22;2167;53.448;9.984;2022-08-03T14:40:20;35.50;1.00
4308;DHT22;2167;53.448;9.984;2022-08-03T14:42:45;35.60;1.00
4308;DHT22;2167;53.448;9.984;2022-08-03T14:45:11;35.60;1.00
4308;DHT22;2167;53.448;9.984;2022-08-03T14:47:38;35.60;1.00
4308;DHT22;2167;53.448;9.984;2022-08-03T14:50:04;35.60;1.00
4308;DHT22;2167;53.448;9.984;2022-08-03T14:52:31;35.60;1.00
4308;DHT22;2167;53.448;9.984;2022-08-03T14:54:57;35.30;1.00
4308;DHT22;2167;53.448;9.984;2022-08-03T14:57:23;35.10;1.00
4308;DHT22;2167;53.448;9.984;2022-08-03T14:59:48;34.80;1.00
4308;DHT22;2167;53.448;9.984;2022-08-03T15:02:14;34.60;1.00
4308;DHT22;2167;53.448;9.984;2022-08-03T15:04:40;34.70;1.00
4308;DHT22;2167;53.448;9.984;2022-08-03T15:07:05;34.70;1.00
4308;DHT22;2167;53.448;9.984;2022-08-03T15:09:31;34.70;1.00
4308;DHT22;2167;53.448;9.984;2022-08-03T15:11:57;34.80;1.00
4308;DHT22;2167;53.448;9.984;2022-08-03T15:14:23;34.90;1.00
4308;DHT22;2167;53.448;9.984;2022-08-03T15:16:48;35.10;1.00
4308;DHT22;2167;53.448;9.984;2022-08-03T15:19:14;35.00;1.00
4308;DHT22;2167;53.448;9.984;2022-08-03T15:21:40;34.80;1.00
4308;DHT22;2167;53.448;9.984;2022-08-03T15:24:05;34.70;1.00
4308;DHT22;2167;53.448;9.984;2022-08-03T15:26:31;34.90;1.00
4308;DHT22;2167;53.448;9.984;2022-08-03T15:28:57;35.00;1.00
4308;DHT22;2167;53.448;9.984;2022-08-03T15:31:23;35.10;1.00
4308;DHT22;2167;53.448;9.984;2022-08-03T15:33:49;35.40;1.00
4308;DHT22;2167;53.448;9.984;2022-08-03T15:36:16;35.60;1.00
4308;DHT22;2167;53.448;9.984;2022-08-03T15:38:42;35.60;1.00
4308;DHT22;2167;53.448;9.984;2022-08-03T15:41:08;35.70;1.00
4308;DHT22;2167;53.448;9.984;2022-08-03T15:43:34;35.70;1.00
4308;DHT22;2167;53.448;9.984;2022-08-03T15:46:00;35.70;1.00
4308;DHT22;2167;53.448;9.984;2022-08-03T15:48:25;35.90;1.00
4308;DHT22;2167;53.448;9.984;2022-08-03T15:50:51;35.90;1.00
4308;DHT22;2167;53.448;9.984;2022-08-03T15:53:18;35.80;1.00
4308;DHT22;2167;53.448;9.984;2022-08-03T15:55:46;35.60;1.00
4308;DHT22;2167;53.448;9.984;2022-08-03T15:58:12;35.20;1.00
4308;DHT22;2167;53.448;9.984;2022-08-03T16:00:38;34.70;1.00
4308;DHT22;2167;53.448;9.984;2022-08-03T16:03:04;34.30;1.00
4308;DHT22;2167;53.448;9.984;2022-08-03T16:05:30;34.10;1.00
4308;DHT22;2167;53.448;9.984;2022-08-03T16:07:55;34.10;1.00
4308;DHT22;2167;53.448;9.984;2022-08-03T16:10:21;34.10;1.00
4308;DHT22;2167;53.448;9.984;2022-08-03T16:12:47;34.20;1.00
4308;DHT22;2167;53.448;9.984;2022-08-03T16:15:14;34.00;1.00
4308;DHT22;2167;53.448;9.984;2022-08-03T16:17:40;33.80;1.00
4308;DHT22;2167;53.448;9.984;2022-08-03T16:20:08;33.70;1.00
4308;DHT22;2167;53.448;9.984;2022-08-03T16:22:43;33.70;1.00
4308;DHT22;2167;53.448;9.984;2022-08-03T16:25:10;33.60;1.00
4308;DHT22;2167;53.448;9.984;2022-08-03T16:27:36;33.70;1.00
4308;DHT22;2167;53.448;9.984;2022-08-03T16:30:06;33.80;1.00
4308;DHT22;2167;53.448;9.984;2022-08-03T16:32:32;33.90;1.00
4308;DHT22;2167;53.448;9.984;2022-08-03T16:34:58;34.00;1.00
4308;DHT22;2167;53.448;9.984;2022-08-03T16:37:24;33.90;1.00
4308;DHT22;2167;53.448;9.984;2022-08-03T16:39:50;33.90;1.00
4308;DHT22;2167;53.448;9.984;2022-08-03T16:42:15;34.00;1.00
4308;DHT22;2167;53.448;9.984;2022-08-03T16:44:41;34.00;1.00
4308;DHT22;2167;53.448;9.984;2022-08-03T16:47:07;34.00;1.00
4308;DHT22;2167;53.448;9.984;2022-08-03T16:49:33;33.90;1.00
4308;DHT22;2167;53.448;9.984;2022-08-03T16:51:58;33.80;1.00
4308;DHT22;2167;53.448;9.984;2022-08-03T16:54:24;33.70;1.00
4308;DHT22;2167;53.448;9.984;2022-08-03T16:56:50;33.70;1.00